Time;durP1;ratioP1;P1;durP2;ratioP2;P2;SDS_P1;SDS_P2;PMS_P1;PMS_P2;Temp;Humidity;BMP_temperature;BMP_pressure;BME280_temperature;BME280_humidity;BME280_pressure;Samples;Min_cycle;Max_cycle;Signal;HPM_P1;HPM_P2
2022/03/30 00:02:44;;;;;;;56.88;23.32;;;;;;;4.97;100.00;99298.00;1762456;81;21777;-79
2022/03/30 00:05:51;;;;;;;61.13;29.80;;;;;;;5.03;100.00;99308.17;1762754;81;21785;-79
2022/03/30 00:08:57;;;;;;;73.70;29.48;;;;;;;5.07;100.00;99300.05;1763478;81;21164;-79
2022/03/30 00:12:03;;;;;;;58.02;28.92;;;;;;;5.12;100.00;99300.40;1762000;81;21282;-79
2022/03/30 00:15:09;;;;;;;59.67;28.32;;;;;;;5.19;100.00;99297.38;1763426;81;21236;-80
2022/03/30 00:18:14;;;;;;;64.12;29.02;;;;;;;5.25;100.00;99302.13;1763529;81;21724;-80
2022/03/30 00:21:21;;;;;;;67.85;32.13;;;;;;;5.28;100.00;99296.38;1762153;81;21195;-79
2022/03/30 00:24:28;;;;;;;64.82;30.37;;;;;;;5.31;100.00;99288.40;1763511;81;21152;-80
2022/03/30 00:27:34;;;;;;;65.40;31.65;;;;;;;5.32;100.00;99283.34;1763459;81;21184;-79
2022/03/30 00:30:40;;;;;;;62.65;33.88;;;;;;;5.32;100.00;99286.05;1763621;81;21224;-80
2022/03/30 00:33:46;;;;;;;59.50;33.00;;;;;;;5.33;100.00;99280.45;1762140;81;21212;-80
2022/03/30 00:36:52;;;;;;;70.00;33.58;;;;;;;5.32;100.00;99277.41;1762204;81;21255;-80
2022/03/30 00:39:58;;;;;;;73.22;35.73;;;;;;;5.32;100.00;99273.34;1763499;81;21179;-80
2022/03/30 00:43:05;;;;;;;54.95;29.02;;;;;;;5.34;100.00;99274.01;1762654;81;21818;-80
2022/03/30 00:46:12;;;;;;;74.58;35.63;;;;;;;5.38;100.00;99264.52;1762144;81;21235;-79
2022/03/30 00:49:17;;;;;;;60.08;31.87;;;;;;;5.41;100.00;99263.36;1763471;81;21176;-79
2022/03/30 00:52:24;;;;;;;69.62;35.83;;;;;;;5.44;100.00;99258.08;1761970;81;21219;-80
2022/03/30 00:55:30;;;;;;;69.42;34.00;;;;;;;5.46;100.00;99265.53;1763489;81;21235;-80
2022/03/30 00:58:35;;;;;;;59.58;30.65;;;;;;;5.47;100.00;99265.89;1763438;81;21227;-80
2022/03/30 01:01:41;;;;;;;63.58;31.82;;;;;;;5.47;100.00;99262.67;1763423;81;21274;-79
2022/03/30 01:04:48;;;;;;;68.67;32.90;;;;;;;5.48;100.00;99258.09;1761977;81;21227;-80
2022/03/30 01:07:48;;;;;;;67.65;33.50;;;;;;;5.51;100.00;99255.89;1763587;81;21228;-79
2022/03/30 01:10:56;;;;;;;65.17;35.80;;;;;;;5.53;100.00;99251.64;1762045;81;21219;-79
2022/03/30 01:14:03;;;;;;;63.58;35.90;;;;;;;5.52;100.00;99252.67;1761999;81;21215;-80
2022/03/30 01:17:08;;;;;;;74.45;34.55;;;;;;;5.51;100.00;99253.69;1763460;81;21195;-79
2022/03/30 01:20:16;;;;;;;67.72;35.70;;;;;;;5.51;100.00;99254.53;1763543;81;21834;-79
2022/03/30 01:23:22;;;;;;;56.35;31.40;;;;;;;5.51;100.00;99252.34;1744604;81;21207;-80
2022/03/30 01:26:28;;;;;;;65.42;35.13;;;;;;;5.54;100.00;99253.33;1768094;80;21786;-79
2022/03/30 01:32:59;;;;;;;68.35;35.08;;;;;;;5.57;100.00;99244.87;1767814;81;21227;-80
2022/03/30 01:36:06;;;;;;;59.30;33.60;;;;;;;5.60;100.00;99235.88;1769343;81;21172;-80
2022/03/30 01:39:12;;;;;;;70.30;36.90;;;;;;;5.59;100.00;99222.47;1769428;81;21207;-79
2022/03/30 01:42:18;;;;;;;78.30;38.10;;;;;;;5.58;100.00;99226.20;1769469;81;21175;-79
2022/03/30 01:45:26;;;;;;;75.20;37.03;;;;;;;5.58;100.00;99237.06;1769390;81;21180;-80
2022/03/30 01:48:32;;;;;;;69.15;36.90;;;;;;;5.57;100.00;99238.93;1769445;81;21549;-80
2022/03/30 01:51:37;;;;;;;67.85;35.23;;;;;;;5.58;100.00;99241.13;1769205;81;21215;-80
2022/03/30 01:54:45;;;;;;;73.15;34.73;;;;;;;5.59;100.00;99250.95;1768190;81;21907;-80
2022/03/30 01:57:51;;;;;;;65.03;34.23;;;;;;;5.58;100.00;99250.11;1769672;81;21187;-80
2022/03/30 02:00:57;;;;;;;66.30;35.28;;;;;;;5.60;100.00;99252.67;1769418;81;21743;-79
2022/03/30 02:04:03;;;;;;;70.40;34.73;;;;;;;5.59;100.00;99267.23;1768644;81;21184;-79
2022/03/30 02:07:09;;;;;;;74.62;35.33;;;;;;;5.55;100.00;99255.90;1769109;81;21873;-80
2022/03/30 02:10:16;;;;;;;72.90;36.28;;;;;;;5.54;100.00;99254.17;1768015;80;21191;-79
2022/03/30 02:13:22;;;;;;;76.40;39.27;;;;;;;5.54;100.00;99263.67;1769344;81;21834;-79
2022/03/30 02:16:27;;;;;;;79.58;38.33;;;;;;;5.54;100.00;99251.97;1769548;81;21180;-79
2022/03/30 02:19:34;;;;;;;69.95;35.95;;;;;;;5.57;100.00;99244.87;1769713;81;21188;-79
2022/03/30 02:22:40;;;;;;;66.80;36.08;;;;;;;5.56;100.00;99250.80;1771746;80;21183;-80
2022/03/30 02:25:47;;;;;;;62.75;36.50;;;;;;;5.56;100.00;99248.61;1785483;80;21734;-80
2022/03/30 02:28:54;;;;;;;58.60;33.65;;;;;;;5.54;100.00;99238.41;1784020;80;21182;-79
2022/03/30 02:32:00;;;;;;;64.55;32.42;;;;;;;5.53;100.00;99248.42;1785604;80;21187;-79
2022/03/30 02:35:06;;;;;;;63.40;34.92;;;;;;;5.53;100.00;99253.00;1784188;80;21219;-80
2022/03/30 02:38:12;;;;;;;49.75;28.98;;;;;;;5.47;100.00;99243.68;1784653;80;21204;-80
2022/03/30 02:41:17;;;;;;;69.27;34.92;;;;;;;5.43;100.00;99248.26;1785308;80;21741;-80
2022/03/30 02:44:24;;;;;;;58.58;33.25;;;;;;;5.37;100.00;99248.43;1784856;80;22469;-80
2022/03/30 02:50:57;;;;;;;65.03;33.70;;;;;;;5.30;100.00;99253.66;1785385;80;21179;-79
2022/03/30 02:54:03;;;;;;;52.15;29.23;;;;;;;5.30;100.00;99260.95;1784200;80;21413;-80
2022/03/30 02:57:09;;;;;;;69.15;34.53;;;;;;;5.28;100.00;99259.78;1785423;80;21541;-79
2022/03/30 03:00:16;;;;;;;59.98;33.38;;;;;;;5.21;100.00;99259.25;1785452;80;21313;-80
2022/03/30 03:03:22;;;;;;;66.92;32.67;;;;;;;5.14;100.00;99252.30;1784360;80;21209;-80
2022/03/30 03:06:28;;;;;;;69.97;33.83;;;;;;;5.10;100.00;99247.72;1785429;80;21152;-78
2022/03/30 03:09:35;;;;;;;67.60;34.63;;;;;;;5.07;100.00;99252.62;1784009;80;21245;-80
2022/03/30 03:12:41;;;;;;;68.10;37.35;;;;;;;5.03;100.00;99249.89;1785423;80;21218;-79
2022/03/30 03:15:47;;;;;;;61.90;32.48;;;;;;;4.98;100.00;99242.77;1783883;80;21210;-79
2022/03/30 03:18:53;;;;;;;74.35;38.33;;;;;;;5.00;100.00;99249.73;1785329;80;21222;-79
2022/03/30 03:21:59;;;;;;;65.55;35.60;;;;;;;5.02;100.00;99260.41;1783996;80;21171;-79
2022/03/30 03:25:04;;;;;;;70.60;37.48;;;;;;;5.01;100.00;99261.42;1768158;80;21267;-81
2022/03/30 03:28:10;;;;;;;65.35;37.03;;;;;;;5.00;100.00;99245.67;1763653;81;21180;-81
2022/03/30 03:31:15;;;;;;;78.97;36.93;;;;;;;5.04;100.00;99252.97;1763439;81;21740;-81
2022/03/30 03:34:22;;;;;;;81.80;38.05;;;;;;;5.05;100.00;99257.37;1763402;81;21255;-78
2022/03/30 03:37:28;;;;;;;83.95;42.93;;;;;;;5.06;100.00;99265.84;1762145;81;21228;-78
2022/03/30 03:40:33;;;;;;;75.17;38.67;;;;;;;5.05;100.00;99260.92;1763467;81;21160;-78
2022/03/30 03:43:38;;;;;;;69.95;32.65;;;;;;;5.07;100.00;99255.33;1763674;81;21180;-78
2022/03/30 03:46:44;;;;;;;64.87;35.00;;;;;;;5.10;100.00;99254.50;1763568;81;21185;-78
2022/03/30 03:49:50;;;;;;;69.32;33.85;;;;;;;5.12;100.00;99252.96;1763556;81;21219;-78
2022/03/30 03:52:57;;;;;;;78.62;37.05;;;;;;;5.09;100.00;99254.67;1763465;81;21188;-78
2022/03/30 03:56:04;;;;;;;88.62;42.10;;;;;;;5.06;100.00;99250.92;1762462;81;21766;-78
2022/03/30 03:59:12;;;;;;;81.35;40.17;;;;;;;5.07;100.00;99255.33;1762064;81;21318;-78
2022/03/30 04:02:19;;;;;;;79.77;39.83;;;;;;;5.09;100.00;99251.95;1763157;81;21215;-77
2022/03/30 04:05:24;;;;;;;87.22;40.33;;;;;;;5.13;100.00;99254.17;1763101;81;21775;-78
2022/03/30 04:08:31;;;;;;;111.30;45.63;;;;;;;5.18;100.00;99258.25;1762149;81;21235;-78
2022/03/30 04:11:38;;;;;;;98.75;43.78;;;;;;;5.19;100.00;99255.36;1762139;81;21200;-78
2022/03/30 04:14:44;;;;;;;83.90;36.98;;;;;;;5.23;100.00;99254.52;1761968;81;21226;-78
2022/03/30 04:17:46;;;;;;;85.40;37.08;;;;;;;5.23;100.00;99249.95;1763779;81;21231;-77
2022/03/30 04:20:39;;;;;;;94.67;37.88;;;;;;;5.20;100.00;99254.84;1763723;81;21176;-78
2022/03/30 04:23:25;;;;;;;74.42;35.28;;;;;;;5.17;100.00;99253.81;1763735;81;21787;-78
2022/03/30 04:26:24;;;;;;;82.80;38.40;;;;;;;5.16;100.00;99248.91;1762294;80;21735;-78
2022/03/30 04:29:30;;;;;;;86.47;38.40;;;;;;;5.16;100.00;99259.75;1763529;81;21234;-78
2022/03/30 04:32:36;;;;;;;96.53;38.88;;;;;;;5.18;100.00;99263.16;1763407;81;21232;-78
2022/03/30 04:35:42;;;;;;;75.92;34.33;;;;;;;5.20;100.00;99261.63;1763162;81;21231;-77
2022/03/30 04:38:49;;;;;;;82.67;35.70;;;;;;;5.23;100.00;99275.70;1763564;81;21287;-78
2022/03/30 04:41:55;;;;;;;76.05;36.77;;;;;;;5.23;100.00;99263.50;1762160;81;21747;-78
2022/03/30 04:45:01;;;;;;;76.25;33.70;;;;;;;5.22;100.00;99263.17;1763489;81;21187;-77
2022/03/30 04:48:08;;;;;;;81.53;34.38;;;;;;;5.24;100.00;99267.05;1763377;81;21180;-78
2022/03/30 04:51:13;;;;;;;73.72;34.20;;;;;;;5.25;100.00;99268.75;1763501;81;21223;-77
2022/03/30 04:54:18;;;;;;;69.92;32.58;;;;;;;5.27;100.00;99268.93;1763382;81;21224;-78
2022/03/30 04:57:24;;;;;;;73.42;35.13;;;;;;;5.30;100.00;99261.80;1762168;81;21212;-78
2022/03/30 05:00:32;;;;;;;72.50;36.03;;;;;;;5.31;100.00;99260.77;1763512;81;21171;-80
2022/03/30 05:03:38;;;;;;;59.23;31.30;;;;;;;5.34;100.00;99259.09;1762277;81;21219;-80
2022/03/30 05:06:46;;;;;;;62.73;32.80;;;;;;;5.40;100.00;99265.70;1762709;81;21188;-79
2022/03/30 05:09:51;;;;;;;78.42;34.10;;;;;;;5.43;100.00;99265.89;1761692;81;21254;-81
2022/03/30 05:13:00;;;;;;;71.72;33.92;;;;;;;5.47;100.00;99272.67;1763368;81;21344;-81
2022/03/30 05:16:05;;;;;;;67.90;32.93;;;;;;;5.52;100.00;99263.52;1763095;81;21846;-81
2022/03/30 05:19:11;;;;;;;59.40;31.45;;;;;;;5.57;100.00;99258.43;1763508;81;21183;-80
2022/03/30 05:22:16;;;;;;;68.40;31.68;;;;;;;5.56;100.00;99252.67;1763478;81;21180;-81
2022/03/30 05:25:23;;;;;;;66.55;31.65;;;;;;;5.60;100.00;99251.31;1762128;81;21227;-81
2022/03/30 05:28:28;;;;;;;69.47;32.80;;;;;;;5.63;100.00;99256.38;1774402;81;21229;-81
2022/03/30 05:31:35;;;;;;;65.05;33.25;;;;;;;5.69;100.00;99255.69;1774597;81;21160;-80
2022/03/30 05:34:42;;;;;;;61.45;28.85;;;;;;;5.75;100.00;99250.12;1775383;81;21724;-81
2022/03/30 05:37:54;;;;;;;58.02;29.95;;;;;;;5.81;100.00;99243.48;1775522;81;21217;-81
2022/03/30 05:41:02;;;;;;;61.05;28.60;;;;;;;5.89;100.00;99248.91;1776417;81;21918;-81
2022/03/30 05:44:08;;;;;;;55.28;26.85;;;;;;;5.99;100.00;99245.19;1774397;81;21192;-79
2022/03/30 05:47:16;;;;;;;59.93;26.40;;;;;;;6.08;100.00;99240.08;1775799;80;21269;-80
2022/03/30 05:50:23;;;;;;;59.00;27.17;;;;;;;6.14;100.00;99233.95;1776712;81;21296;-79
2022/03/30 05:53:28;;;;;;;43.00;24.02;;;;;;;6.18;100.00;99229.87;1755350;79;21192;-78
2022/03/30 06:00:03;;;;;;;56.13;27.65;;;;;;;6.35;100.00;99223.85;1802935;79;21207;-80
2022/03/30 06:03:10;;;;;;;57.03;27.50;;;;;;;6.43;100.00;99216.19;1771957;80;21228;-80
2022/03/30 06:06:18;;;;;;;55.60;27.67;;;;;;;6.52;100.00;99220.05;1738420;82;21223;-80
2022/03/30 06:09:33;;;;;;;44.60;24.53;;;;;;;6.71;100.00;99218.77;1739808;82;21604;-81
2022/03/30 06:12:55;;;;;;;49.08;25.88;;;;;;;6.95;100.00;99222.38;1767702;81;21640;-79
2022/03/30 06:15:59;;;;;;;47.23;25.55;;;;;;;7.17;100.00;99235.15;1759872;81;21227;-80
2022/03/30 06:19:10;;;;;;;51.98;25.57;;;;;;;7.39;100.00;99236.19;1791210;79;21173;-78
2022/03/30 06:22:16;;;;;;;56.80;29.87;;;;;;;7.54;100.00;99232.99;1801011;79;21239;-80
2022/03/30 06:25:24;;;;;;;56.98;28.02;;;;;;;7.69;100.00;99233.88;1770249;79;21183;-81
2022/03/30 06:28:30;;;;;;;53.68;27.22;;;;;;;7.90;100.00;99226.86;1778299;79;21194;-80
2022/03/30 06:31:36;;;;;;;55.23;27.98;;;;;;;8.09;100.00;99225.48;1783984;80;21202;-79
2022/03/30 06:34:41;;;;;;;49.27;24.63;;;;;;;8.27;100.00;99230.05;1748892;80;21255;-80
2022/03/30 06:37:35;;;;;;;58.60;27.02;;;;;;;8.42;99.45;99228.22;1745295;80;21319;-81
2022/03/30 06:40:40;;;;;;;52.10;24.75;;;;;;;8.53;97.87;99239.67;1738866;81;21179;-81
2022/03/30 06:43:49;;;;;;;51.65;24.80;;;;;;;8.60;97.04;99233.77;1710493;81;21212;-81
2022/03/30 06:46:55;;;;;;;52.80;27.37;;;;;;;8.70;95.83;99246.59;1746746;80;21358;-80
2022/03/30 06:50:02;;;;;;;54.83;28.25;;;;;;;8.78;95.11;99246.48;1751499;80;21586;-81
2022/03/30 06:53:10;;;;;;;54.40;28.07;;;;;;;8.87;94.57;99239.89;1755422;80;21189;-81
2022/03/30 06:56:14;;;;;;;43.50;27.32;;;;;;;9.01;93.80;99247.72;1744214;80;21736;-80
2022/03/30 06:59:19;;;;;;;54.05;27.48;;;;;;;9.12;92.73;99242.27;1731671;80;21299;-80
2022/03/30 07:02:25;;;;;;;54.75;27.75;;;;;;;9.22;92.32;99244.16;1744396;80;21245;-79
2022/03/30 07:05:32;;;;;;;46.73;24.47;;;;;;;9.33;91.64;99242.30;1750354;80;21200;-81
2022/03/30 07:12:03;;;;;;;50.98;26.35;;;;;;;9.55;90.46;99234.09;1743202;80;21858;-80
2022/03/30 07:15:09;;;;;;;41.42;22.10;;;;;;;9.66;89.81;99224.88;1757958;80;21332;-80
2022/03/30 07:18:15;;;;;;;46.80;25.95;;;;;;;9.76;89.18;99231.36;1740868;81;21754;-80
2022/03/30 07:21:21;;;;;;;43.30;22.37;;;;;;;9.87;88.86;99232.17;1735791;80;21720;-80
2022/03/30 07:24:26;;;;;;;48.10;24.37;;;;;;;10.06;88.62;99231.16;1739859;82;21595;-81
2022/03/30 07:27:32;;;;;;;51.55;23.85;;;;;;;10.21;87.60;99230.55;1739486;82;21184;-81
2022/03/30 07:30:39;;;;;;;46.42;24.00;;;;;;;10.37;86.98;99230.78;1734971;80;21185;-80
2022/03/30 07:33:44;;;;;;;43.15;22.75;;;;;;;10.54;86.14;99223.95;1742952;81;21161;-81
2022/03/30 07:36:50;;;;;;;43.95;22.40;;;;;;;10.70;84.91;99230.42;1738320;81;21170;-81
2022/03/30 07:39:55;;;;;;;45.23;22.42;;;;;;;10.86;84.01;99225.64;1746089;81;21212;-80
2022/03/30 07:43:04;;;;;;;46.10;23.38;;;;;;;11.04;83.51;99231.39;1748186;81;21237;-80
2022/03/30 07:46:13;;;;;;;44.00;21.05;;;;;;;11.24;82.75;99234.19;1722956;82;21208;-81
2022/03/30 07:49:20;;;;;;;47.88;24.02;;;;;;;11.39;81.31;99236.24;1751245;80;21228;-80
2022/03/30 07:52:26;;;;;;;47.98;21.55;;;;;;;11.55;80.89;99241.00;1732799;80;21772;-81
2022/03/30 07:55:34;;;;;;;42.98;20.90;;;;;;;11.71;80.50;99240.58;1725143;80;21212;-80
2022/03/30 07:58:41;;;;;;;33.78;19.73;;;;;;;11.89;79.41;99235.88;1717085;82;21827;-80
2022/03/30 08:01:49;;;;;;;41.13;19.20;;;;;;;12.03;78.20;99230.18;1741352;82;21232;-80
2022/03/30 08:04:55;;;;;;;34.35;19.87;;;;;;;12.16;76.24;99229.87;1738002;82;21212;-80
2022/03/30 08:08:02;;;;;;;30.45;16.57;;;;;;;12.24;75.18;99229.66;1749298;80;21303;-80
2022/03/30 08:11:09;;;;;;;34.50;19.10;;;;;;;12.29;74.61;99227.11;1748403;80;21265;-80
2022/03/30 08:14:19;;;;;;;38.28;20.43;;;;;;;12.36;73.88;99232.04;1745114;81;21308;-79
2022/03/30 08:17:26;;;;;;;40.40;19.80;;;;;;;12.43;73.08;99232.88;1747280;80;21826;-80
2022/03/30 08:23:53;;;;;;;36.42;20.70;;;;;;;12.62;73.06;99224.28;1695597;80;21188;-80
2022/03/30 08:26:59;;;;;;;33.90;19.37;;;;;;;12.79;72.54;99228.75;1744005;80;21192;-80
2022/03/30 08:30:05;;;;;;;36.90;18.05;;;;;;;12.95;72.10;99220.04;1730007;80;21217;-80
2022/03/30 08:33:11;;;;;;;35.60;18.48;;;;;;;13.11;71.54;99220.59;1722478;81;21347;-80
2022/03/30 08:36:17;;;;;;;39.50;18.90;;;;;;;13.25;70.79;99218.95;1726219;81;21300;-80
2022/03/30 08:39:23;;;;;;;34.98;18.87;;;;;;;13.40;70.11;99214.52;1726475;81;21188;-80
2022/03/30 08:42:23;;;;;;;36.40;18.07;;;;;;;13.52;69.34;99212.77;1724537;81;21174;-80
2022/03/30 08:45:30;;;;;;;33.08;17.87;;;;;;;13.61;68.09;99209.76;1727826;81;21197;-80
2022/03/30 08:48:34;;;;;;;30.60;17.37;;;;;;;13.69;67.75;99206.71;1710148;82;21200;-81
2022/03/30 08:51:40;;;;;;;29.75;15.78;;;;;;;13.80;67.14;99195.02;1754549;80;21228;-81
2022/03/30 08:54:51;;;;;;;35.45;18.12;;;;;;;13.93;66.05;99198.19;1753680;79;21244;-80
2022/03/30 08:57:56;;;;;;;34.80;16.93;;;;;;;14.00;64.86;99195.67;1741842;81;21173;-80
2022/03/30 09:01:15;;;;;;;37.38;15.58;;;;;;;14.11;64.75;99194.08;1754470;81;21177;-81
2022/03/30 09:04:21;;;;;;;32.70;15.75;;;;;;;14.26;64.29;99195.13;1754045;80;21235;-80
2022/03/30 09:07:28;;;;;;;31.40;15.35;;;;;;;14.37;64.28;99187.48;1756521;80;21185;-81
2022/03/30 09:10:38;;;;;;;37.67;16.57;;;;;;;14.52;63.91;99187.97;1754506;79;21199;-81
2022/03/30 09:13:44;;;;;;;35.38;15.78;;;;;;;14.64;63.00;99190.81;1752569;79;21256;-81
2022/03/30 09:16:58;;;;;;;31.93;14.58;;;;;;;14.76;62.08;99185.36;1745383;82;22518;-81
2022/03/30 09:20:04;;;;;;;27.80;14.80;;;;;;;14.87;61.61;99181.86;1763351;79;21224;-80
2022/03/30 09:23:10;;;;;;;35.13;15.72;;;;;;;15.01;60.76;99179.77;1758349;80;21464;-81
2022/03/30 09:26:17;;;;;;;28.10;15.08;;;;;;;15.10;59.40;99174.21;1751353;80;21176;-81
2022/03/30 09:29:23;;;;;;;32.50;14.68;;;;;;;15.20;59.21;99174.52;1753504;80;21228;-81
2022/03/30 09:32:30;;;;;;;31.20;15.25;;;;;;;15.30;59.02;99169.82;1777318;78;21888;-81
2022/03/30 09:35:40;;;;;;;35.63;14.38;;;;;;;15.43;57.96;99167.38;1755447;78;21316;-81
2022/03/30 09:38:47;;;;;;;29.10;13.48;;;;;;;15.54;56.95;99157.78;1744511;80;21201;-80
2022/03/30 09:41:58;;;;;;;26.42;13.60;;;;;;;15.63;55.52;99160.20;1723220;81;21170;-79
2022/03/30 09:45:05;;;;;;;29.90;13.68;;;;;;;15.66;56.08;99156.44;1737042;80;21209;-81
2022/03/30 09:48:20;;;;;;;21.62;12.60;;;;;;;15.74;56.00;99156.64;1736327;82;21157;-80
2022/03/30 09:51:28;;;;;;;30.75;14.33;;;;;;;15.80;56.28;99148.78;1738508;82;21184;-81
2022/03/30 09:54:57;;;;;;;29.85;12.47;;;;;;;15.86;54.73;99150.61;1739112;81;21180;-80
2022/03/30 09:58:08;;;;;;;24.10;11.40;;;;;;;15.94;54.92;99141.13;1714009;83;21266;-81
2022/03/30 10:01:34;;;;;;;;;;;;;;;16.03;54.69;99140.52;1729166;80;21236;-81
2022/03/30 10:04:40;;;;;;;23.95;11.33;;;;;;;16.18;54.18;99142.79;1746595;80;20178;-80
2022/03/30 10:07:45;;;;;;;30.70;12.88;;;;;;;16.33;52.17;99136.26;1720413;82;21242;-81
2022/03/30 10:10:52;;;;;;;31.23;12.90;;;;;;;16.48;51.62;99133.53;1736764;80;21149;-81
2022/03/30 10:14:00;;;;;;;30.35;12.70;;;;;;;16.55;51.27;99126.77;1709559;80;21851;-80
2022/03/30 10:17:01;;;;;;;34.50;14.47;;;;;;;16.63;50.63;99124.18;1719778;83;21221;-80
2022/03/30 10:20:07;;;;;;;30.17;13.60;;;;;;;16.76;49.79;99119.80;1711778;83;21311;-81
2022/03/30 10:23:41;;;;;;;24.15;13.35;;;;;;;16.90;48.29;99107.92;1720355;83;21257;-80
2022/03/30 10:27:19;;;;;;;22.82;11.95;;;;;;;17.00;48.40;99110.88;1719702;83;21242;-81
2022/03/30 10:30:36;;;;;;;24.52;12.80;;;;;;;17.05;48.20;99104.06;1720283;83;21240;-80
2022/03/30 10:33:44;;;;;;;37.42;13.18;;;;;;;17.04;46.60;99098.80;1704563;84;21222;-81
2022/03/30 10:37:09;;;;;;;20.75;12.13;;;;;;;17.08;46.17;99099.43;1704285;84;21805;-80
2022/03/30 10:40:13;;;;;;;21.27;12.25;;;;;;;17.22;45.00;99093.56;1702841;84;21802;-80
2022/03/30 10:43:07;;;;;;;20.35;12.55;;;;;;;17.30;44.50;99094.00;1705843;84;21818;-81
2022/03/30 10:46:02;;;;;;;30.77;12.05;;;;;;;17.45;43.36;99085.68;1704192;84;21592;-80
2022/03/30 10:48:55;;;;;;;32.83;12.47;;;;;;;17.55;42.94;99089.47;1733054;83;21177;-80
2022/03/30 10:51:42;;;;;;;20.85;10.82;;;;;;;17.68;43.12;99084.13;1727559;83;21897;-81
2022/03/30 10:54:38;;;;;;;23.85;12.47;;;;;;;17.76;42.48;99074.06;1699748;83;21212;-81
2022/03/30 10:57:57;;;;;;;32.53;11.22;;;;;;;17.81;42.06;99061.69;1728218;83;21200;-81
2022/03/30 11:01:09;;;;;;;22.60;10.78;;;;;;;17.84;41.48;99065.34;1690253;83;21893;-80
2022/03/30 11:04:25;;;;;;;26.50;11.10;;;;;;;17.92;40.77;99068.20;1727635;83;21240;-80
2022/03/30 11:07:37;;;;;;;31.57;11.60;;;;;;;18.02;40.68;99057.31;1728342;83;21256;-80
2022/03/30 11:10:56;;;;;;;20.88;11.35;;;;;;;18.12;40.72;99053.84;1728347;83;21212;-80
2022/03/30 11:14:43;;;;;;;24.87;10.72;;;;;;;18.19;40.60;99046.73;1729438;83;21177;-80
2022/03/30 11:17:48;;;;;;;22.37;11.30;;;;;;;18.25;40.08;99044.30;1726723;83;21259;-80
2022/03/30 11:21:18;;;;;;;25.82;12.30;;;;;;;18.34;38.94;99038.61;1727975;83;21252;-80
2022/03/30 11:24:26;;;;;;;25.32;11.10;;;;;;;18.39;38.75;99038.13;1728358;83;21255;-81
2022/03/30 11:27:32;;;;;;;17.23;10.48;;;;;;;18.43;38.40;99032.91;1728169;83;21198;-81
2022/03/30 11:30:39;;;;;;;18.02;10.10;;;;;;;18.50;36.05;99033.56;1728077;83;21767;-80
2022/03/30 11:33:45;;;;;;;20.85;11.75;;;;;;;18.65;34.74;99036.50;1718073;83;21878;-80
2022/03/30 11:36:52;;;;;;;19.05;10.30;;;;;;;18.75;34.43;99024.73;1711507;84;21824;-80
2022/03/30 11:40:10;;;;;;;22.73;10.88;;;;;;;18.86;34.43;99018.73;1713681;84;21256;-80
2022/03/30 11:43:19;;;;;;;25.77;11.97;;;;;;;18.93;34.21;99017.98;1697734;83;21224;-80
2022/03/30 11:46:37;;;;;;;33.90;11.65;;;;;;;18.99;35.15;99013.33;1713467;84;21249;-80
2022/03/30 11:49:56;;;;;;;23.18;10.90;;;;;;;19.03;35.54;99017.25;1713366;84;21765;-80
2022/03/30 11:53:07;;;;;;;22.02;11.53;;;;;;;19.10;34.41;99007.63;1712290;83;21194;-80
2022/03/30 11:56:15;;;;;;;27.35;11.80;;;;;;;19.14;33.69;99008.75;1712377;84;22617;-80
2022/03/30 11:59:20;;;;;;;21.50;11.08;;;;;;;19.17;33.50;99013.50;1713411;82;21751;-80
2022/03/30 12:02:29;;;;;;;24.47;12.40;;;;;;;19.20;33.45;99000.51;1663435;85;21227;-79
2022/03/30 12:05:35;;;;;;;29.87;12.13;;;;;;;19.22;32.91;99012.16;1663570;85;21184;-80
2022/03/30 12:08:53;;;;;;;23.25;11.68;;;;;;;19.26;32.37;99004.98;1743594;82;21533;-79
2022/03/30 12:12:00;;;;;;;23.35;12.05;;;;;;;19.29;32.96;99002.52;1742527;82;21199;-81
2022/03/30 12:15:11;;;;;;;21.75;13.13;;;;;;;19.33;32.14;99003.64;1764863;79;21728;-80
2022/03/30 12:18:17;;;;;;;22.00;12.23;;;;;;;19.34;32.06;98994.80;1805828;79;21262;-81
2022/03/30 12:21:34;;;;;;;23.80;13.25;;;;;;;19.35;32.25;99002.01;1806232;79;21465;-80
2022/03/30 12:24:42;;;;;;;22.15;13.05;;;;;;;19.36;32.12;98992.03;1804577;79;21165;-81
2022/03/30 12:27:48;;;;;;;24.57;12.65;;;;;;;19.35;30.87;99001.45;1805971;79;21157;-81
2022/03/30 12:30:54;;;;;;;23.70;13.32;;;;;;;19.36;31.35;99001.73;1784056;79;21252;-81
2022/03/30 12:34:01;;;;;;;23.87;13.60;;;;;;;19.38;31.92;98995.91;1737471;82;21645;-80
2022/03/30 12:37:10;;;;;;;20.57;12.80;;;;;;;19.36;31.66;98996.19;1779259;80;21285;-80
2022/03/30 12:40:22;;;;;;;24.72;13.15;;;;;;;19.39;31.72;98985.13;1742034;82;21218;-80
2022/03/30 12:43:22;;;;;;;22.93;13.15;;;;;;;19.41;31.69;98992.63;1778163;80;21210;-80
2022/03/30 12:46:27;;;;;;;25.30;12.55;;;;;;;19.41;31.83;98994.84;1747030;81;21204;-81
2022/03/30 12:49:46;;;;;;;24.25;11.53;;;;;;;19.46;32.40;98991.27;1743266;82;21729;-80
2022/03/30 12:52:57;;;;;;;23.22;12.23;;;;;;;19.52;31.83;98988.80;1733625;82;21902;-80
2022/03/30 12:56:05;;;;;;;20.05;12.18;;;;;;;19.57;31.50;98992.17;1736450;82;21532;-80
2022/03/30 12:59:10;;;;;;;22.30;13.08;;;;;;;19.59;31.98;98988.59;1733989;82;21210;-81
2022/03/30 13:02:34;;;;;;;26.73;12.65;;;;;;;19.61;32.67;98985.85;1735863;82;21221;-78
2022/03/30 13:05:40;;;;;;;23.02;12.53;;;;;;;19.61;32.80;98985.85;1734060;82;21760;-81
2022/03/30 13:08:46;;;;;;;21.60;13.08;;;;;;;19.61;32.90;98977.53;1735185;82;21208;-80
2022/03/30 13:11:57;;;;;;;26.60;12.45;;;;;;;19.61;33.32;98980.86;1734116;82;21209;-81
2022/03/30 13:15:04;;;;;;;23.20;11.40;;;;;;;19.59;33.10;98981.66;1741210;82;21150;-80
2022/03/30 13:18:14;;;;;;;21.42;11.75;;;;;;;19.57;32.78;98979.16;1704609;82;21213;-80
2022/03/30 13:21:20;;;;;;;25.70;12.63;;;;;;;19.58;33.09;98982.22;1740181;82;21201;-80
2022/03/30 13:24:27;;;;;;;24.15;11.55;;;;;;;19.57;33.31;98987.48;1738937;82;22396;-81
2022/03/30 13:27:36;;;;;;;20.43;11.88;;;;;;;19.58;33.46;98985.55;1740141;82;21228;-81
2022/03/30 13:30:42;;;;;;;24.82;13.20;;;;;;;19.53;33.09;98987.73;1726541;82;21259;-81
2022/03/30 13:33:47;;;;;;;20.92;12.33;;;;;;;19.46;33.60;98991.27;1743895;82;21228;-81
2022/03/30 13:36:54;;;;;;;28.32;13.32;;;;;;;19.39;33.95;98990.68;1697404;83;21313;-81
2022/03/30 13:40:00;;;;;;;23.32;13.05;;;;;;;19.34;33.90;98989.26;1710808;84;21209;-81
2022/03/30 13:43:06;;;;;;;28.35;12.65;;;;;;;19.28;34.52;98985.58;1696979;84;21245;-81
2022/03/30 13:46:13;;;;;;;23.05;11.30;;;;;;;19.20;34.58;98993.03;1717034;83;21210;-80
2022/03/30 13:49:40;;;;;;;28.52;12.75;;;;;;;19.14;34.60;98990.73;1718378;83;21228;-80
2022/03/30 13:52:26;;;;;;;33.13;12.63;;;;;;;19.09;34.82;98994.85;1718973;83;21224;-80
2022/03/30 13:55:32;;;;;;;22.77;11.68;;;;;;;19.01;35.19;98987.05;1718764;83;21212;-80
2022/03/30 13:58:38;;;;;;;28.75;13.30;;;;;;;18.92;35.42;98978.92;1717443;83;21212;-80
2022/03/30 14:01:44;;;;;;;26.37;13.25;;;;;;;18.85;35.79;98992.97;1718740;83;21244;-80
2022/03/30 14:04:51;;;;;;;31.97;13.35;;;;;;;18.77;36.28;98988.45;1718715;83;21233;-81
2022/03/30 14:07:58;;;;;;;35.10;12.80;;;;;;;18.69;36.63;98988.94;1719082;83;21209;-80
2022/03/30 14:11:05;;;;;;;30.27;12.58;;;;;;;18.61;36.78;98991.04;1718508;83;21276;-80
2022/03/30 14:14:12;;;;;;;20.80;11.48;;;;;;;18.54;37.24;98992.36;1719558;83;21264;-80
2022/03/30 14:17:18;;;;;;;30.30;11.20;;;;;;;18.45;37.37;98990.59;1719691;83;21252;-80
2022/03/30 14:20:25;;;;;;;20.68;12.13;;;;;;;18.35;37.45;98987.16;1719134;83;21232;-81
2022/03/30 14:23:31;;;;;;;26.80;11.75;;;;;;;18.27;37.94;98988.16;1719808;83;21878;-81
2022/03/30 14:26:40;;;;;;;19.12;10.80;;;;;;;18.16;38.12;98994.66;1719955;83;21177;-80
2022/03/30 14:29:34;;;;;;;22.00;11.97;;;;;;;18.03;38.10;98991.20;1719700;83;21204;-80
2022/03/30 14:32:40;;;;;;;23.75;10.98;;;;;;;17.95;38.11;98994.40;1719825;83;21209;-81
2022/03/30 14:35:46;;;;;;;25.72;12.20;;;;;;;17.87;38.25;98992.06;1717666;83;21211;-81
2022/03/30 14:38:52;;;;;;;23.55;12.28;;;;;;;17.79;38.29;98993.91;1719877;83;21237;-80